sensor_id;sensor_type;location;lat;lon;timestamp;noise_LAeq;noise_LA_min;noise_LA_max;noise_LA01;noise_LA95
77134;Laerm;25175;50.140;18.990;2023-07-29T00:01:48;36.53;34.00;48.71;;
77134;Laerm;25175;50.140;18.990;2023-07-29T00:04:54;36.41;33.73;47.74;;
77134;Laerm;25175;50.140;18.990;2023-07-29T00:07:58;36.01;33.27;41.80;;
77134;Laerm;25175;50.140;18.990;2023-07-29T00:11:04;35.66;33.29;43.29;;
77134;Laerm;25175;50.140;18.990;2023-07-29T00:14:11;38.49;33.22;50.86;;
77134;Laerm;25175;50.140;18.990;2023-07-29T00:17:16;36.93;34.35;42.88;;
77134;Laerm;25175;50.140;18.990;2023-07-29T00:20:21;38.75;34.53;51.68;;
77134;Laerm;25175;50.140;18.990;2023-07-29T00:23:27;36.36;33.89;41.40;;
77134;Laerm;25175;50.140;18.990;2023-07-29T00:26:31;36.59;33.78;40.88;;
77134;Laerm;25175;50.140;18.990;2023-07-29T00:29:40;39.78;34.16;53.98;;
77134;Laerm;25175;50.140;18.990;2023-07-29T00:32:44;36.60;33.94;39.76;;
77134;Laerm;25175;50.140;18.990;2023-07-29T00:35:49;36.45;33.72;40.07;;
77134;Laerm;25175;50.140;18.990;2023-07-29T00:38:54;39.75;34.46;56.78;;
77134;Laerm;25175;50.140;18.990;2023-07-29T00:41:59;38.55;35.03;46.25;;
77134;Laerm;25175;50.140;18.990;2023-07-29T00:45:08;42.69;36.22;52.08;;
77134;Laerm;25175;50.140;18.990;2023-07-29T00:48:14;40.16;34.84;52.76;;
77134;Laerm;25175;50.140;18.990;2023-07-29T00:51:19;37.88;35.03;42.11;;
77134;Laerm;25175;50.140;18.990;2023-07-29T00:54:25;39.09;34.84;51.24;;
77134;Laerm;25175;50.140;18.990;2023-07-29T00:57:30;41.65;35.61;54.97;;
77134;Laerm;25175;50.140;18.990;2023-07-29T01:00:39;39.56;35.04;48.97;;
77134;Laerm;25175;50.140;18.990;2023-07-29T01:03:44;41.11;34.95;61.74;;
77134;Laerm;25175;50.140;18.990;2023-07-29T01:07:01;37.34;34.56;43.01;;
77134;Laerm;25175;50.140;18.990;2023-07-29T01:10:21;38.18;34.99;46.18;;
77134;Laerm;25175;50.140;18.990;2023-07-29T01:13:39;37.11;34.07;41.40;;
77134;Laerm;25175;50.140;18.990;2023-07-29T01:16:56;36.97;34.63;42.05;;
77134;Laerm;25175;50.140;18.990;2023-07-29T01:20:09;36.49;34.00;42.42;;
77134;Laerm;25175;50.140;18.990;2023-07-29T01:23:16;36.25;34.04;42.11;;
77134;Laerm;25175;50.140;18.990;2023-07-29T01:26:24;38.10;34.14;49.51;;
77134;Laerm;25175;50.140;18.990;2023-07-29T01:29:31;37.51;34.10;47.53;;
77134;Laerm;25175;50.140;18.990;2023-07-29T01:32:43;38.25;34.19;55.09;;
77134;Laerm;25175;50.140;18.990;2023-07-29T01:35:56;36.81;34.20;41.33;;
77134;Laerm;25175;50.140;18.990;2023-07-29T01:39:03;37.01;34.23;41.70;;
77134;Laerm;25175;50.140;18.990;2023-07-29T01:42:12;45.44;34.64;67.75;;
77134;Laerm;25175;50.140;18.990;2023-07-29T01:45:17;38.50;34.91;53.81;;
77134;Laerm;25175;50.140;18.990;2023-07-29T01:48:22;38.00;34.30;51.90;;
77134;Laerm;25175;50.140;18.990;2023-07-29T01:51:27;37.96;34.77;51.75;;
77134;Laerm;25175;50.140;18.990;2023-07-29T01:54:33;37.78;34.92;43.28;;
77134;Laerm;25175;50.140;18.990;2023-07-29T01:57:41;38.04;34.98;42.05;;
77134;Laerm;25175;50.140;18.990;2023-07-29T02:00:46;36.81;33.66;43.56;;
77134;Laerm;25175;50.140;18.990;2023-07-29T02:03:51;36.21;33.79;42.27;;
77134;Laerm;25175;50.140;18.990;2023-07-29T02:06:56;36.86;34.24;41.53;;
77134;Laerm;25175;50.140;18.990;2023-07-29T02:10:02;36.16;33.64;40.21;;
77134;Laerm;25175;50.140;18.990;2023-07-29T02:13:09;36.28;33.89;40.02;;
77134;Laerm;25175;50.140;18.990;2023-07-29T02:16:14;39.81;34.05;45.40;;
77134;Laerm;25175;50.140;18.990;2023-07-29T02:19:19;44.03;36.48;52.19;;
77134;Laerm;25175;50.140;18.990;2023-07-29T02:22:25;41.95;37.47;54.92;;
77134;Laerm;25175;50.140;18.990;2023-07-29T02:25:29;42.13;37.36;47.28;;
77134;Laerm;25175;50.140;18.990;2023-07-29T02:28:37;41.12;37.72;45.20;;
77134;Laerm;25175;50.140;18.990;2023-07-29T02:31:41;41.35;36.82;45.51;;
77134;Laerm;25175;50.140;18.990;2023-07-29T02:34:47;40.49;37.60;44.48;;
77134;Laerm;25175;50.140;18.990;2023-07-29T02:37:51;42.34;37.32;57.11;;
77134;Laerm;25175;50.140;18.990;2023-07-29T02:40:58;40.93;37.50;46.49;;
77134;Laerm;25175;50.140;18.990;2023-07-29T02:44:05;42.02;34.62;51.38;;
77134;Laerm;25175;50.140;18.990;2023-07-29T02:47:11;44.14;36.49;61.49;;
77134;Laerm;25175;50.140;18.990;2023-07-29T02:50:15;42.30;37.94;49.57;;
77134;Laerm;25175;50.140;18.990;2023-07-29T02:53:25;41.10;37.32;44.88;;
77134;Laerm;25175;50.140;18.990;2023-07-29T02:56:29;40.81;37.14;44.15;;
77134;Laerm;25175;50.140;18.990;2023-07-29T02:59:38;41.21;37.97;47.32;;
77134;Laerm;25175;50.140;18.990;2023-07-29T03:02:42;42.03;37.29;52.23;;
77134;Laerm;25175;50.140;18.990;2023-07-29T03:05:48;41.71;38.59;53.55;;
77134;Laerm;25175;50.140;18.990;2023-07-29T03:08:52;43.08;38.42;55.76;;
77134;Laerm;25175;50.140;18.990;2023-07-29T03:11:57;43.69;38.23;59.76;;
77134;Laerm;25175;50.140;18.990;2023-07-29T03:15:06;42.28;37.82;55.21;;
77134;Laerm;25175;50.140;18.990;2023-07-29T03:18:13;41.93;37.16;46.30;;
77134;Laerm;25175;50.140;18.990;2023-07-29T03:21:18;41.50;38.27;46.08;;
77134;Laerm;25175;50.140;18.990;2023-07-29T03:24:24;41.46;37.71;49.34;;
77134;Laerm;25175;50.140;18.990;2023-07-29T03:27:28;43.23;37.39;60.86;;
77134;Laerm;25175;50.140;18.990;2023-07-29T03:30:36;41.67;38.04;46.60;;
77134;Laerm;25175;50.140;18.990;2023-07-29T03:33:43;42.30;38.21;53.72;;
77134;Laerm;25175;50.140;18.990;2023-07-29T03:36:48;43.81;37.84;60.86;;
77134;Laerm;25175;50.140;18.990;2023-07-29T03:39:53;40.71;37.11;52.36;;
77134;Laerm;25175;50.140;18.990;2023-07-29T03:42:58;42.76;37.57;58.73;;
77134;Laerm;25175;50.140;18.990;2023-07-29T03:46:05;42.90;38.05;52.35;;
77134;Laerm;25175;50.140;18.990;2023-07-29T03:49:11;42.74;37.77;53.27;;
77134;Laerm;25175;50.140;18.990;2023-07-29T03:52:15;43.35;37.89;58.73;;
77134;Laerm;25175;50.140;18.990;2023-07-29T03:55:21;42.26;37.52;57.05;;
77134;Laerm;25175;50.140;18.990;2023-07-29T03:58:25;42.17;37.85;45.73;;
77134;Laerm;25175;50.140;18.990;2023-07-29T04:01:34;41.44;37.84;52.68;;
77134;Laerm;25175;50.140;18.990;2023-07-29T04:04:38;44.33;36.87;59.48;;
77134;Laerm;25175;50.140;18.990;2023-07-29T04:07:44;41.44;37.14;56.42;;
77134;Laerm;25175;50.140;18.990;2023-07-29T04:10:49;41.79;37.80;55.21;;
77134;Laerm;25175;50.140;18.990;2023-07-29T04:13:54;45.18;37.93;55.93;;
77134;Laerm;25175;50.140;18.990;2023-07-29T04:17:01;42.85;37.74;52.74;;
77134;Laerm;25175;50.140;18.990;2023-07-29T04:20:08;44.48;37.71;58.64;;
77134;Laerm;25175;50.140;18.990;2023-07-29T04:23:13;41.89;37.84;45.56;;
77134;Laerm;25175;50.140;18.990;2023-07-29T04:26:19;43.99;38.48;52.82;;
77134;Laerm;25175;50.140;18.990;2023-07-29T04:29:23;42.78;36.95;52.47;;
77134;Laerm;25175;50.140;18.990;2023-07-29T04:32:31;43.77;37.94;64.56;;
77134;Laerm;25175;50.140;18.990;2023-07-29T04:35:36;41.50;37.14;59.39;;
77134;Laerm;25175;50.140;18.990;2023-07-29T04:38:41;43.05;37.03;54.55;;
77134;Laerm;25175;50.140;18.990;2023-07-29T04:41:45;42.70;37.19;54.82;;
77134;Laerm;25175;50.140;18.990;2023-07-29T04:44:51;41.38;36.85;47.98;;
77134;Laerm;25175;50.140;18.990;2023-07-29T04:47:58;43.14;37.11;55.81;;
77134;Laerm;25175;50.140;18.990;2023-07-29T04:51:04;44.97;38.26;55.65;;
77134;Laerm;25175;50.140;18.990;2023-07-29T04:54:08;42.29;36.72;53.11;;
77134;Laerm;25175;50.140;18.990;2023-07-29T04:57:14;43.33;37.82;54.02;;
77134;Laerm;25175;50.140;18.990;2023-07-29T05:00:18;43.05;37.38;54.82;;
77134;Laerm;25175;50.140;18.990;2023-07-29T05:03:26;43.10;36.77;55.21;;
77134;Laerm;25175;50.140;18.990;2023-07-29T05:06:31;42.60;35.79;57.38;;
77134;Laerm;25175;50.140;18.990;2023-07-29T05:09:36;39.60;35.15;53.46;;
77134;Laerm;25175;50.140;18.990;2023-07-29T05:12:40;41.73;35.74;53.01;;
77134;Laerm;25175;50.140;18.990;2023-07-29T05:15:47;41.04;35.44;56.09;;
77134;Laerm;25175;50.140;18.990;2023-07-29T05:18:55;41.28;35.31;60.88;;
77134;Laerm;25175;50.140;18.990;2023-07-29T05:22:00;41.83;35.13;57.89;;
77134;Laerm;25175;50.140;18.990;2023-07-29T05:25:07;41.60;35.07;53.39;;
77134;Laerm;25175;50.140;18.990;2023-07-29T05:28:13;42.19;35.43;59.78;;
77134;Laerm;25175;50.140;18.990;2023-07-29T05:31:17;39.09;34.91;52.14;;
77134;Laerm;25175;50.140;18.990;2023-07-29T05:34:26;41.92;36.46;53.87;;
77134;Laerm;25175;50.140;18.990;2023-07-29T05:37:30;38.57;35.16;47.85;;
77134;Laerm;25175;50.140;18.990;2023-07-29T05:40:36;41.76;35.22;57.06;;
77134;Laerm;25175;50.140;18.990;2023-07-29T05:43:40;41.92;35.54;54.30;;
77134;Laerm;25175;50.140;18.990;2023-07-29T05:46:47;42.27;34.90;55.95;;
77134;Laerm;25175;50.140;18.990;2023-07-29T05:49:55;41.56;34.73;56.40;;
77134;Laerm;25175;50.140;18.990;2023-07-29T05:53:00;41.06;34.25;57.97;;
77134;Laerm;25175;50.140;18.990;2023-07-29T05:56:04;40.35;34.50;51.24;;
77134;Laerm;25175;50.140;18.990;2023-07-29T05:59:10;40.93;34.49;53.92;;
77134;Laerm;25175;50.140;18.990;2023-07-29T06:02:14;41.05;34.14;53.81;;
77134;Laerm;25175;50.140;18.990;2023-07-29T06:05:23;42.65;33.41;58.97;;
77134;Laerm;25175;50.140;18.990;2023-07-29T06:08:28;47.18;34.56;66.47;;
77134;Laerm;25175;50.140;18.990;2023-07-29T06:11:36;47.51;34.60;71.08;;
77134;Laerm;25175;50.140;18.990;2023-07-29T06:14:41;41.23;34.16;56.56;;
77134;Laerm;25175;50.140;18.990;2023-07-29T06:17:46;41.04;34.39;52.01;;
77134;Laerm;25175;50.140;18.990;2023-07-29T06:20:53;39.42;34.10;51.73;;
77134;Laerm;25175;50.140;18.990;2023-07-29T06:23:58;43.62;34.25;54.34;;
77134;Laerm;25175;50.140;18.990;2023-07-29T06:27:03;42.88;34.66;58.26;;
77134;Laerm;25175;50.140;18.990;2023-07-29T06:30:10;40.90;33.87;54.36;;
77134;Laerm;25175;50.140;18.990;2023-07-29T06:33:14;43.15;34.25;57.09;;
77134;Laerm;25175;50.140;18.990;2023-07-29T06:36:22;43.20;33.87;59.30;;
77134;Laerm;25175;50.140;18.990;2023-07-29T06:39:27;45.36;33.68;61.67;;
77134;Laerm;25175;50.140;18.990;2023-07-29T06:42:32;40.55;33.78;56.59;;
77134;Laerm;25175;50.140;18.990;2023-07-29T06:45:36;44.13;33.74;55.23;;
77134;Laerm;25175;50.140;18.990;2023-07-29T06:48:42;42.26;33.65;57.04;;
77134;Laerm;25175;50.140;18.990;2023-07-29T06:51:49;44.70;33.69;60.79;;
77134;Laerm;25175;50.140;18.990;2023-07-29T06:54:54;43.43;33.67;58.07;;
77134;Laerm;25175;50.140;18.990;2023-07-29T06:57:59;43.60;33.60;59.26;;
77134;Laerm;25175;50.140;18.990;2023-07-29T07:01:04;43.38;33.91;56.13;;
77134;Laerm;25175;50.140;18.990;2023-07-29T07:04:08;43.92;33.14;59.80;;
77134;Laerm;25175;50.140;18.990;2023-07-29T07:07:16;43.47;33.42;68.10;;
77134;Laerm;25175;50.140;18.990;2023-07-29T07:10:21;42.78;33.41;57.39;;
77134;Laerm;25175;50.140;18.990;2023-07-29T07:13:26;44.91;33.91;57.56;;
77134;Laerm;25175;50.140;18.990;2023-07-29T07:16:31;43.89;33.60;65.11;;
77134;Laerm;25175;50.140;18.990;2023-07-29T07:19:38;44.56;33.77;57.26;;
77134;Laerm;25175;50.140;18.990;2023-07-29T07:22:45;44.65;33.56;58.23;;
77134;Laerm;25175;50.140;18.990;2023-07-29T07:25:51;44.99;33.51;55.86;;
77134;Laerm;25175;50.140;18.990;2023-07-29T07:28:55;40.57;33.59;54.41;;
77134;Laerm;25175;50.140;18.990;2023-07-29T07:32:01;44.59;34.00;60.83;;
77134;Laerm;25175;50.140;18.990;2023-07-29T07:35:09;42.79;33.58;58.65;;
77134;Laerm;25175;50.140;18.990;2023-07-29T07:38:17;47.95;33.51;68.09;;
77134;Laerm;25175;50.140;18.990;2023-07-29T07:41:22;43.62;33.95;62.13;;
77134;Laerm;25175;50.140;18.990;2023-07-29T07:44:27;41.94;34.60;55.02;;
77134;Laerm;25175;50.140;18.990;2023-07-29T07:47:32;45.15;34.65;56.54;;
77134;Laerm;25175;50.140;18.990;2023-07-29T07:50:37;44.95;34.86;57.37;;
77134;Laerm;25175;50.140;18.990;2023-07-29T07:53:44;44.86;36.05;55.96;;
77134;Laerm;25175;50.140;18.990;2023-07-29T07:56:49;45.14;35.98;59.12;;
77134;Laerm;25175;50.140;18.990;2023-07-29T07:59:54;43.34;34.65;57.15;;
77134;Laerm;25175;50.140;18.990;2023-07-29T08:02:59;42.98;34.03;57.00;;
77134;Laerm;25175;50.140;18.990;2023-07-29T08:06:05;41.65;34.52;56.44;;
77134;Laerm;25175;50.140;18.990;2023-07-29T08:09:13;48.18;34.74;65.42;;
77134;Laerm;25175;50.140;18.990;2023-07-29T08:12:17;43.78;34.41;64.27;;
77134;Laerm;25175;50.140;18.990;2023-07-29T08:15:22;44.96;34.13;57.79;;
77134;Laerm;25175;50.140;18.990;2023-07-29T08:18:27;42.19;34.23;58.23;;
77134;Laerm;25175;50.140;18.990;2023-07-29T08:21:32;44.05;34.78;58.59;;
77134;Laerm;25175;50.140;18.990;2023-07-29T08:24:39;46.23;35.36;58.60;;
77134;Laerm;25175;50.140;18.990;2023-07-29T08:27:44;41.84;34.31;55.40;;
77134;Laerm;25175;50.140;18.990;2023-07-29T08:30:50;45.35;34.07;58.70;;
77134;Laerm;25175;50.140;18.990;2023-07-29T08:33:55;45.35;34.90;57.16;;
77134;Laerm;25175;50.140;18.990;2023-07-29T08:37:00;44.10;35.05;59.54;;
77134;Laerm;25175;50.140;18.990;2023-07-29T08:40:09;45.72;34.65;59.50;;
77134;Laerm;25175;50.140;18.990;2023-07-29T08:43:19;46.40;34.86;65.42;;
77134;Laerm;25175;50.140;18.990;2023-07-29T08:46:25;45.71;34.80;68.95;;
77134;Laerm;25175;50.140;18.990;2023-07-29T08:49:32;43.54;34.79;61.44;;
77134;Laerm;25175;50.140;18.990;2023-07-29T08:52:40;46.70;34.67;68.94;;
77134;Laerm;25175;50.140;18.990;2023-07-29T08:55:49;45.34;35.03;61.31;;
77134;Laerm;25175;50.140;18.990;2023-07-29T08:58:56;44.66;34.45;63.32;;
77134;Laerm;25175;50.140;18.990;2023-07-29T09:02:03;45.15;35.99;56.00;;
77134;Laerm;25175;50.140;18.990;2023-07-29T09:05:09;46.41;35.21;57.01;;
77134;Laerm;25175;50.140;18.990;2023-07-29T09:08:14;44.74;35.07;61.94;;
77134;Laerm;25175;50.140;18.990;2023-07-29T09:11:22;48.69;35.18;68.90;;
77134;Laerm;25175;50.140;18.990;2023-07-29T09:14:28;42.68;34.52;56.57;;
77134;Laerm;25175;50.140;18.990;2023-07-29T09:17:34;43.17;34.94;62.47;;
77134;Laerm;25175;50.140;18.990;2023-07-29T09:20:40;43.14;35.19;58.37;;
77134;Laerm;25175;50.140;18.990;2023-07-29T09:23:45;44.92;34.76;68.60;;
77134;Laerm;25175;50.140;18.990;2023-07-29T09:26:52;45.77;34.80;73.91;;
77134;Laerm;25175;50.140;18.990;2023-07-29T09:29:58;47.96;34.20;66.00;;
77134;Laerm;25175;50.140;18.990;2023-07-29T09:33:04;47.00;34.44;70.23;;
77134;Laerm;25175;50.140;18.990;2023-07-29T09:36:10;56.65;35.71;82.30;;
77134;Laerm;25175;50.140;18.990;2023-07-29T09:39:14;55.19;37.14;75.63;;
77134;Laerm;25175;50.140;18.990;2023-07-29T09:42:23;58.45;36.33;79.35;;
77134;Laerm;25175;50.140;18.990;2023-07-29T09:45:28;53.22;35.55;72.93;;
77134;Laerm;25175;50.140;18.990;2023-07-29T09:48:33;51.63;37.22;78.78;;
77134;Laerm;25175;50.140;18.990;2023-07-29T09:51:39;56.10;37.29;77.23;;
77134;Laerm;25175;50.140;18.990;2023-07-29T09:54:46;55.02;36.25;76.09;;
77134;Laerm;25175;50.140;18.990;2023-07-29T09:57:58;56.36;36.03;75.18;;
77134;Laerm;25175;50.140;18.990;2023-07-29T10:01:06;53.66;36.13;73.76;;
77134;Laerm;25175;50.140;18.990;2023-07-29T10:04:14;54.89;36.14;73.39;;
77134;Laerm;25175;50.140;18.990;2023-07-29T10:07:21;54.20;36.53;74.35;;
77134;Laerm;25175;50.140;18.990;2023-07-29T10:10:27;54.01;35.71;74.81;;
77134;Laerm;25175;50.140;18.990;2023-07-29T10:13:36;56.69;37.64;77.95;;
77134;Laerm;25175;50.140;18.990;2023-07-29T10:16:42;56.09;37.20;79.53;;
77134;Laerm;25175;50.140;18.990;2023-07-29T10:19:50;48.46;36.34;73.99;;
77134;Laerm;25175;50.140;18.990;2023-07-29T10:22:59;45.50;36.59;62.01;;
77134;Laerm;25175;50.140;18.990;2023-07-29T10:26:10;56.02;37.71;74.03;;
77134;Laerm;25175;50.140;18.990;2023-07-29T10:29:20;54.82;36.35;76.98;;
77134;Laerm;25175;50.140;18.990;2023-07-29T10:32:31;54.64;36.61;72.85;;
77134;Laerm;25175;50.140;18.990;2023-07-29T10:35:38;56.35;36.63;88.10;;
77134;Laerm;25175;50.140;18.990;2023-07-29T10:38:43;51.51;36.34;80.53;;
77134;Laerm;25175;50.140;18.990;2023-07-29T10:41:56;70.78;36.46;79.88;;
77134;Laerm;25175;50.140;18.990;2023-07-29T10:45:18;70.58;35.98;84.77;;
77134;Laerm;25175;50.140;18.990;2023-07-29T10:48:42;72.23;39.18;81.77;;
77134;Laerm;25175;50.140;18.990;2023-07-29T10:51:49;64.00;36.23;81.76;;
77134;Laerm;25175;50.140;18.990;2023-07-29T10:54:53;71.58;37.61;82.29;;
77134;Laerm;25175;50.140;18.990;2023-07-29T10:58:11;71.72;37.29;83.29;;
77134;Laerm;25175;50.140;18.990;2023-07-29T11:01:28;72.68;36.75;85.93;;
77134;Laerm;25175;50.140;18.990;2023-07-29T11:04:47;73.16;36.38;85.26;;
77134;Laerm;25175;50.140;18.990;2023-07-29T11:07:52;72.73;36.50;85.11;;
77134;Laerm;25175;50.140;18.990;2023-07-29T11:11:01;73.67;37.23;87.49;;
77134;Laerm;25175;50.140;18.990;2023-07-29T11:14:08;71.35;35.46;87.03;;
77134;Laerm;25175;50.140;18.990;2023-07-29T11:17:16;70.97;36.09;80.58;;
77134;Laerm;25175;50.140;18.990;2023-07-29T11:20:24;72.89;37.09;85.13;;
77134;Laerm;25175;50.140;18.990;2023-07-29T11:23:32;73.63;36.14;83.78;;
77134;Laerm;25175;50.140;18.990;2023-07-29T11:26:37;73.90;39.40;84.18;;
77134;Laerm;25175;50.140;18.990;2023-07-29T11:29:42;72.44;35.94;82.51;;
77134;Laerm;25175;50.140;18.990;2023-07-29T11:32:50;73.36;36.55;86.33;;
77134;Laerm;25175;50.140;18.990;2023-07-29T11:35:55;73.71;35.65;82.77;;
77134;Laerm;25175;50.140;18.990;2023-07-29T11:39:09;50.60;35.64;77.76;;
77134;Laerm;25175;50.140;18.990;2023-07-29T11:42:15;41.50;35.15;54.74;;
77134;Laerm;25175;50.140;18.990;2023-07-29T11:45:21;52.39;35.65;74.10;;
77134;Laerm;25175;50.140;18.990;2023-07-29T11:48:33;48.90;35.98;72.69;;
77134;Laerm;25175;50.140;18.990;2023-07-29T11:51:37;55.98;36.46;71.72;;
77134;Laerm;25175;50.140;18.990;2023-07-29T11:54:43;50.36;35.86;78.07;;
77134;Laerm;25175;50.140;18.990;2023-07-29T11:57:52;47.74;36.05;64.91;;
77134;Laerm;25175;50.140;18.990;2023-07-29T12:00:59;49.36;37.75;77.29;;
77134;Laerm;25175;50.140;18.990;2023-07-29T12:04:07;43.74;35.40;70.60;;
77134;Laerm;25175;50.140;18.990;2023-07-29T12:07:14;46.49;36.62;68.11;;
77134;Laerm;25175;50.140;18.990;2023-07-29T12:10:20;43.03;35.97;65.86;;
77134;Laerm;25175;50.140;18.990;2023-07-29T12:13:25;48.17;34.81;73.79;;
77134;Laerm;25175;50.140;18.990;2023-07-29T12:16:30;54.46;35.78;85.88;;
77134;Laerm;25175;50.140;18.990;2023-07-29T12:19:40;44.37;35.42;60.60;;
77134;Laerm;25175;50.140;18.990;2023-07-29T12:22:51;46.01;35.48;71.83;;
77134;Laerm;25175;50.140;18.990;2023-07-29T12:25:58;48.36;35.86;75.17;;
77134;Laerm;25175;50.140;18.990;2023-07-29T12:29:12;47.46;35.49;76.94;;
77134;Laerm;25175;50.140;18.990;2023-07-29T12:32:17;47.30;36.17;70.25;;
77134;Laerm;25175;50.140;18.990;2023-07-29T12:35:34;47.68;34.84;74.05;;
77134;Laerm;25175;50.140;18.990;2023-07-29T12:38:42;47.79;34.26;70.83;;
77134;Laerm;25175;50.140;18.990;2023-07-29T12:41:48;44.48;35.37;58.89;;
77134;Laerm;25175;50.140;18.990;2023-07-29T12:44:54;48.84;35.98;74.92;;
77134;Laerm;25175;50.140;18.990;2023-07-29T12:47:58;44.86;34.64;68.50;;
77134;Laerm;25175;50.140;18.990;2023-07-29T12:51:06;45.08;34.98;59.53;;
77134;Laerm;25175;50.140;18.990;2023-07-29T12:54:12;46.82;35.06;59.85;;
77134;Laerm;25175;50.140;18.990;2023-07-29T12:57:17;48.82;36.04;66.65;;
77134;Laerm;25175;50.140;18.990;2023-07-29T13:00:22;43.05;34.96;67.92;;
77134;Laerm;25175;50.140;18.990;2023-07-29T13:03:27;45.77;35.13;61.61;;
77134;Laerm;25175;50.140;18.990;2023-07-29T13:06:34;44.40;35.15;60.24;;
77134;Laerm;25175;50.140;18.990;2023-07-29T13:09:39;43.97;36.70;63.70;;
77134;Laerm;25175;50.140;18.990;2023-07-29T13:12:44;49.75;37.58;74.17;;
77134;Laerm;25175;50.140;18.990;2023-07-29T13:15:49;43.01;36.47;56.67;;
77134;Laerm;25175;50.140;18.990;2023-07-29T13:18:54;51.22;36.33;79.38;;
77134;Laerm;25175;50.140;18.990;2023-07-29T13:22:02;45.15;37.04;61.47;;
77134;Laerm;25175;50.140;18.990;2023-07-29T13:25:08;45.65;35.94;57.70;;
77134;Laerm;25175;50.140;18.990;2023-07-29T13:28:13;45.22;35.90;71.97;;
77134;Laerm;25175;50.140;18.990;2023-07-29T13:31:18;48.54;35.65;66.50;;
77134;Laerm;25175;50.140;18.990;2023-07-29T13:34:23;46.34;36.33;61.39;;
77134;Laerm;25175;50.140;18.990;2023-07-29T13:37:30;49.24;36.06;69.08;;
77134;Laerm;25175;50.140;18.990;2023-07-29T13:40:36;45.62;35.64;69.22;;
77134;Laerm;25175;50.140;18.990;2023-07-29T13:43:40;58.18;35.75;88.13;;
77134;Laerm;25175;50.140;18.990;2023-07-29T13:46:45;55.72;37.06;75.15;;
77134;Laerm;25175;50.140;18.990;2023-07-29T13:49:50;56.84;37.19;87.46;;
77134;Laerm;25175;50.140;18.990;2023-07-29T13:52:58;59.06;37.27;75.75;;
77134;Laerm;25175;50.140;18.990;2023-07-29T13:56:05;72.87;36.46;92.90;;
77134;Laerm;25175;50.140;18.990;2023-07-29T13:59:10;72.62;36.49;85.25;;
77134;Laerm;25175;50.140;18.990;2023-07-29T14:02:14;74.30;36.12;85.66;;
77134;Laerm;25175;50.140;18.990;2023-07-29T14:05:20;73.35;37.72;84.59;;
77134;Laerm;25175;50.140;18.990;2023-07-29T14:08:27;43.31;35.81;68.33;;
77134;Laerm;25175;50.140;18.990;2023-07-29T14:11:32;46.04;36.35;75.21;;
77134;Laerm;25175;50.140;18.990;2023-07-29T14:14:37;47.55;35.44;73.17;;
77134;Laerm;25175;50.140;18.990;2023-07-29T14:17:42;53.28;35.67;70.04;;
77134;Laerm;25175;50.140;18.990;2023-07-29T14:20:47;51.39;36.28;68.25;;
77134;Laerm;25175;50.140;18.990;2023-07-29T14:23:56;48.48;37.60;63.00;;
77134;Laerm;25175;50.140;18.990;2023-07-29T14:27:00;50.63;36.18;67.00;;
77134;Laerm;25175;50.140;18.990;2023-07-29T14:30:07;69.70;36.08;84.83;;
77134;Laerm;25175;50.140;18.990;2023-07-29T14:33:13;49.51;36.32;71.14;;
77134;Laerm;25175;50.140;18.990;2023-07-29T14:36:18;47.71;35.61;77.45;;
77134;Laerm;25175;50.140;18.990;2023-07-29T14:39:25;46.26;36.45;68.51;;
77134;Laerm;25175;50.140;18.990;2023-07-29T14:42:30;45.08;36.07;62.25;;
77134;Laerm;25175;50.140;18.990;2023-07-29T14:45:35;46.46;36.22;66.70;;
77134;Laerm;25175;50.140;18.990;2023-07-29T14:48:40;54.85;36.86;86.55;;
77134;Laerm;25175;50.140;18.990;2023-07-29T14:51:44;46.23;37.34;67.54;;
77134;Laerm;25175;50.140;18.990;2023-07-29T14:54:52;45.99;37.95;59.92;;
77134;Laerm;25175;50.140;18.990;2023-07-29T14:57:57;52.37;38.41;73.06;;
77134;Laerm;25175;50.140;18.990;2023-07-29T15:01:02;55.05;40.45;78.79;;
77134;Laerm;25175;50.140;18.990;2023-07-29T15:04:06;61.10;36.99;75.96;;
77134;Laerm;25175;50.140;18.990;2023-07-29T15:07:12;73.29;37.64;82.27;;
77134;Laerm;25175;50.140;18.990;2023-07-29T15:10:19;59.58;35.41;73.66;;
77134;Laerm;25175;50.140;18.990;2023-07-29T15:13:24;63.56;37.22;72.15;;
77134;Laerm;25175;50.140;18.990;2023-07-29T15:16:30;56.77;37.46;69.57;;
77134;Laerm;25175;50.140;18.990;2023-07-29T15:19:36;61.39;45.68;77.08;;
77134;Laerm;25175;50.140;18.990;2023-07-29T15:22:40;54.73;35.64;74.89;;
77134;Laerm;25175;50.140;18.990;2023-07-29T15:25:48;51.16;37.97;70.46;;
77134;Laerm;25175;50.140;18.990;2023-07-29T15:28:53;78.53;37.31;91.89;;
77134;Laerm;25175;50.140;18.990;2023-07-29T15:31:58;73.61;48.99;88.74;;
77134;Laerm;25175;50.140;18.990;2023-07-29T15:35:03;71.66;37.51;85.05;;
77134;Laerm;25175;50.140;18.990;2023-07-29T15:38:09;61.46;38.16;78.75;;
77134;Laerm;25175;50.140;18.990;2023-07-29T15:41:16;72.53;37.46;80.42;;
77134;Laerm;25175;50.140;18.990;2023-07-29T15:44:22;70.72;37.09;81.59;;
77134;Laerm;25175;50.140;18.990;2023-07-29T15:47:27;70.69;37.69;86.46;;
77134;Laerm;25175;50.140;18.990;2023-07-29T15:50:32;48.48;35.88;73.78;;
77134;Laerm;25175;50.140;18.990;2023-07-29T15:53:38;48.82;36.89;69.22;;
77134;Laerm;25175;50.140;18.990;2023-07-29T15:56:46;76.63;37.38;89.65;;
77134;Laerm;25175;50.140;18.990;2023-07-29T15:59:50;80.41;36.60;94.68;;
77134;Laerm;25175;50.140;18.990;2023-07-29T16:02:56;80.49;38.98;95.71;;
77134;Laerm;25175;50.140;18.990;2023-07-29T16:06:00;73.94;37.88;89.61;;
77134;Laerm;25175;50.140;18.990;2023-07-29T16:09:06;71.48;37.11;86.46;;
77134;Laerm;25175;50.140;18.990;2023-07-29T16:12:13;60.94;36.37;81.56;;
77134;Laerm;25175;50.140;18.990;2023-07-29T16:15:18;61.42;35.58;82.39;;
77134;Laerm;25175;50.140;18.990;2023-07-29T16:18:23;55.89;35.38;90.62;;
77134;Laerm;25175;50.140;18.990;2023-07-29T16:21:28;56.72;36.76;89.54;;
77134;Laerm;25175;50.140;18.990;2023-07-29T16:24:32;48.19;36.53;76.13;;
77134;Laerm;25175;50.140;18.990;2023-07-29T16:27:41;51.33;36.44;77.95;;
77134;Laerm;25175;50.140;18.990;2023-07-29T16:30:46;48.83;36.69;73.07;;
77134;Laerm;25175;50.140;18.990;2023-07-29T16:33:51;53.64;36.43;86.34;;
77134;Laerm;25175;50.140;18.990;2023-07-29T16:36:56;52.22;35.62;81.10;;
77134;Laerm;25175;50.140;18.990;2023-07-29T16:40:01;52.73;36.48;70.67;;
77134;Laerm;25175;50.140;18.990;2023-07-29T16:43:09;46.41;37.25;68.10;;
77134;Laerm;25175;50.140;18.990;2023-07-29T16:46:14;46.06;36.27;69.02;;
77134;Laerm;25175;50.140;18.990;2023-07-29T16:49:18;49.85;36.38;74.33;;
77134;Laerm;25175;50.140;18.990;2023-07-29T16:52:24;46.74;36.66;69.72;;
77134;Laerm;25175;50.140;18.990;2023-07-29T16:55:28;46.37;36.15;70.99;;
77134;Laerm;25175;50.140;18.990;2023-07-29T16:58:36;47.57;36.72;79.73;;
77134;Laerm;25175;50.140;18.990;2023-07-29T17:01:40;43.72;36.48;66.56;;
77134;Laerm;25175;50.140;18.990;2023-07-29T17:04:46;51.12;37.76;82.06;;
77134;Laerm;25175;50.140;18.990;2023-07-29T17:07:50;48.97;36.53;73.23;;